sensor_id;sensor_type;location;lat;lon;timestamp;pressure;altitude;pressure_sealevel;temperature;humidity
77482;BME280;66582;43.004;-75.010;2023-04-03T00:01:31;100522.57;;;3.28;28.93
77482;BME280;66582;43.004;-75.010;2023-04-03T00:03:56;100526.57;;;3.68;28.61
77482;BME280;66582;43.004;-75.010;2023-04-03T00:06:21;100529.12;;;3.71;28.13
77482;BME280;66582;43.004;-75.010;2023-04-03T00:08:47;100537.88;;;1.93;30.23
77482;BME280;66582;43.004;-75.010;2023-04-03T00:11:11;100543.33;;;1.66;32.01
77482;BME280;66582;43.004;-75.010;2023-04-03T00:13:37;100545.80;;;2.04;32.31
77482;BME280;66582;43.004;-75.010;2023-04-03T00:16:03;100551.48;;;0.99;35.12
77482;BME280;66582;43.004;-75.010;2023-04-03T00:18:28;100557.10;;;1.03;34.84
77482;BME280;66582;43.004;-75.010;2023-04-03T00:20:54;100558.67;;;1.42;34.14
77482;BME280;66582;43.004;-75.010;2023-04-03T00:23:20;100561.93;;;1.62;34.14
77482;BME280;66582;43.004;-75.010;2023-04-03T00:25:44;100558.80;;;3.15;30.88
77482;BME280;66582;43.004;-75.010;2023-04-03T00:28:10;100567.63;;;2.27;32.29
77482;BME280;66582;43.004;-75.010;2023-04-03T00:30:35;100564.93;;;3.80;30.34
77482;BME280;66582;43.004;-75.010;2023-04-03T00:33:00;100571.88;;;3.64;31.04
77482;BME280;66582;43.004;-75.010;2023-04-03T00:35:26;100577.15;;;5.04;29.35
77482;BME280;66582;43.004;-75.010;2023-04-03T00:37:53;100587.23;;;3.91;29.77
77482;BME280;66582;43.004;-75.010;2023-04-03T00:40:16;100590.00;;;4.57;29.40
77482;BME280;66582;43.004;-75.010;2023-04-03T00:42:43;100600.19;;;3.88;30.24
77482;BME280;66582;43.004;-75.010;2023-04-03T00:45:24;100597.23;;;4.99;29.08
77482;BME280;66582;43.004;-75.010;2023-04-03T00:47:32;100607.94;;;4.42;30.44
77482;BME280;66582;43.004;-75.010;2023-04-03T00:49:57;100615.16;;;2.69;32.12
77482;BME280;66582;43.004;-75.010;2023-04-03T00:52:26;100616.62;;;3.18;32.40
77482;BME280;66582;43.004;-75.010;2023-04-03T00:54:50;100626.38;;;1.85;34.60
77482;BME280;66582;43.004;-75.010;2023-04-03T00:57:14;100641.97;;;0.40;37.73
77482;BME280;66582;43.004;-75.010;2023-04-03T00:59:41;100640.92;;;1.43;36.19
77482;BME280;66582;43.004;-75.010;2023-04-03T01:02:04;100648.05;;;-2.19;42.92
77482;BME280;66582;43.004;-75.010;2023-04-03T01:04:30;100629.71;;;-0.60;41.14
77482;BME280;66582;43.004;-75.010;2023-04-03T01:06:56;100634.78;;;-0.26;39.21
77482;BME280;66582;43.004;-75.010;2023-04-03T01:09:20;100637.65;;;1.36;36.97
77482;BME280;66582;43.004;-75.010;2023-04-03T01:11:46;100627.27;;;2.31;34.83
77482;BME280;66582;43.004;-75.010;2023-04-03T01:14:10;100628.75;;;1.21;36.71
77482;BME280;66582;43.004;-75.010;2023-04-03T01:16:36;100625.10;;;0.90;37.69
77482;BME280;66582;43.004;-75.010;2023-04-03T01:19:02;100620.40;;;1.12;36.97
77482;BME280;66582;43.004;-75.010;2023-04-03T01:24:04;100612.30;;;2.36;35.85
77482;BME280;66582;43.004;-75.010;2023-04-03T01:26:18;100615.16;;;0.99;38.04
77482;BME280;66582;43.004;-75.010;2023-04-03T01:28:44;100608.72;;;1.72;36.45
77482;BME280;66582;43.004;-75.010;2023-04-03T01:31:15;100608.46;;;2.29;35.30
77482;BME280;66582;43.004;-75.010;2023-04-03T01:33:33;100624.10;;;0.30;38.08
77482;BME280;66582;43.004;-75.010;2023-04-03T01:35:58;100628.98;;;-0.03;40.20
77482;BME280;66582;43.004;-75.010;2023-04-03T01:38:23;100631.17;;;-0.17;40.02
77482;BME280;66582;43.004;-75.010;2023-04-03T01:40:49;100627.62;;;0.40;39.47
77482;BME280;66582;43.004;-75.010;2023-04-03T01:43:14;100619.65;;;0.25;39.96
77482;BME280;66582;43.004;-75.010;2023-04-03T01:45:39;100611.75;;;0.42;39.21
77482;BME280;66582;43.004;-75.010;2023-04-03T01:48:05;100611.21;;;0.10;39.36
77482;BME280;66582;43.004;-75.010;2023-04-03T01:50:29;100613.30;;;-0.41;40.64
77482;BME280;66582;43.004;-75.010;2023-04-03T01:52:54;100616.03;;;-0.60;41.01
77482;BME280;66582;43.004;-75.010;2023-04-03T01:55:20;100620.30;;;-0.20;40.43
77482;BME280;66582;43.004;-75.010;2023-04-03T01:57:45;100620.16;;;0.92;37.97
77482;BME280;66582;43.004;-75.010;2023-04-03T02:00:12;100613.35;;;1.21;36.79
77482;BME280;66582;43.004;-75.010;2023-04-03T02:02:35;100610.06;;;2.63;34.69
77482;BME280;66582;43.004;-75.010;2023-04-03T02:05:02;100626.44;;;-1.35;40.88
77482;BME280;66582;43.004;-75.010;2023-04-03T02:07:26;100625.40;;;-1.56;43.02
77482;BME280;66582;43.004;-75.010;2023-04-03T02:09:52;100612.33;;;-1.13;42.94
77482;BME280;66582;43.004;-75.010;2023-04-03T02:12:16;100607.41;;;0.72;39.84
77482;BME280;66582;43.004;-75.010;2023-04-03T02:14:41;100613.96;;;0.04;39.66
77482;BME280;66582;43.004;-75.010;2023-04-03T02:17:07;100613.19;;;0.56;39.27
77482;BME280;66582;43.004;-75.010;2023-04-03T02:19:32;100619.29;;;-0.96;41.58
77482;BME280;66582;43.004;-75.010;2023-04-03T02:21:57;100625.11;;;-0.63;40.24
77482;BME280;66582;43.004;-75.010;2023-04-03T02:24:22;100626.78;;;0.07;39.21
77482;BME280;66582;43.004;-75.010;2023-04-03T02:26:48;100632.97;;;-1.59;41.20
77482;BME280;66582;43.004;-75.010;2023-04-03T02:29:13;100636.44;;;-1.96;42.66
77482;BME280;66582;43.004;-75.010;2023-04-03T02:31:38;100636.22;;;-1.19;42.78
77482;BME280;66582;43.004;-75.010;2023-04-03T02:34:03;100635.49;;;-1.66;44.55
77482;BME280;66582;43.004;-75.010;2023-04-03T02:36:28;100635.13;;;-1.31;43.81
77482;BME280;66582;43.004;-75.010;2023-04-03T02:38:54;100633.35;;;-0.45;42.31
77482;BME280;66582;43.004;-75.010;2023-04-03T02:41:19;100631.35;;;1.20;38.84
77482;BME280;66582;43.004;-75.010;2023-04-03T02:43:44;100632.57;;;1.82;37.61
77482;BME280;66582;43.004;-75.010;2023-04-03T02:46:09;100636.92;;;0.92;38.00
77482;BME280;66582;43.004;-75.010;2023-04-03T02:48:34;100649.11;;;-0.44;42.20
77482;BME280;66582;43.004;-75.010;2023-04-03T02:51:00;100652.67;;;-0.66;43.34
77482;BME280;66582;43.004;-75.010;2023-04-03T02:53:25;100651.00;;;-0.26;44.93
77482;BME280;66582;43.004;-75.010;2023-04-03T02:55:51;100642.04;;;1.11;41.61
77482;BME280;66582;43.004;-75.010;2023-04-03T02:58:15;100642.28;;;1.08;39.60
77482;BME280;66582;43.004;-75.010;2023-04-03T03:00:41;100631.25;;;2.17;37.92
77482;BME280;66582;43.004;-75.010;2023-04-03T03:03:06;100641.60;;;-0.76;43.95
77482;BME280;66582;43.004;-75.010;2023-04-03T03:05:31;100642.67;;;0.30;42.94
77482;BME280;66582;43.004;-75.010;2023-04-03T03:07:56;100643.75;;;-0.76;42.98
77482;BME280;66582;43.004;-75.010;2023-04-03T03:10:22;100634.05;;;0.99;39.43
77482;BME280;66582;43.004;-75.010;2023-04-03T03:12:47;100638.72;;;0.52;40.90
77482;BME280;66582;43.004;-75.010;2023-04-03T03:15:12;100629.36;;;2.14;38.23
77482;BME280;66582;43.004;-75.010;2023-04-03T03:17:38;100629.14;;;2.30;37.42
77482;BME280;66582;43.004;-75.010;2023-04-03T03:20:03;100620.32;;;3.64;35.99
77482;BME280;66582;43.004;-75.010;2023-04-03T03:22:28;100619.49;;;4.65;33.32
77482;BME280;66582;43.004;-75.010;2023-04-03T03:24:52;100629.10;;;2.65;34.77
77482;BME280;66582;43.004;-75.010;2023-04-03T03:27:18;100627.56;;;2.27;34.61
77482;BME280;66582;43.004;-75.010;2023-04-03T03:29:43;100624.47;;;2.54;35.76
77482;BME280;66582;43.004;-75.010;2023-04-03T03:32:08;100621.29;;;2.06;36.20
77482;BME280;66582;43.004;-75.010;2023-04-03T03:34:33;100618.94;;;1.96;37.00
77482;BME280;66582;43.004;-75.010;2023-04-03T03:36:58;100613.20;;;2.89;34.86
77482;BME280;66582;43.004;-75.010;2023-04-03T03:39:25;100616.46;;;3.01;35.37
77482;BME280;66582;43.004;-75.010;2023-04-03T03:41:50;100621.66;;;0.64;38.91
77482;BME280;66582;43.004;-75.010;2023-04-03T03:44:15;100614.56;;;0.99;39.00
77482;BME280;66582;43.004;-75.010;2023-04-03T03:46:40;100617.05;;;-0.98;42.87
77482;BME280;66582;43.004;-75.010;2023-04-03T03:49:05;100628.82;;;-3.04;48.43
77482;BME280;66582;43.004;-75.010;2023-04-03T03:51:30;100619.27;;;-1.41;45.23
77482;BME280;66582;43.004;-75.010;2023-04-03T03:53:56;100614.16;;;-1.11;43.89
77482;BME280;66582;43.004;-75.010;2023-04-03T03:56:22;100622.84;;;-2.43;47.49
77482;BME280;66582;43.004;-75.010;2023-04-03T03:58:48;100624.10;;;-2.78;48.71
77482;BME280;66582;43.004;-75.010;2023-04-03T04:01:12;100629.22;;;-2.77;49.17
77482;BME280;66582;43.004;-75.010;2023-04-03T04:03:37;100628.76;;;-3.36;49.12
77482;BME280;66582;43.004;-75.010;2023-04-03T04:06:03;100628.77;;;-2.79;49.87
77482;BME280;66582;43.004;-75.010;2023-04-03T04:08:28;100620.06;;;-1.90;47.37
77482;BME280;66582;43.004;-75.010;2023-04-03T04:10:53;100615.24;;;-2.18;48.29
77482;BME280;66582;43.004;-75.010;2023-04-03T04:13:19;100615.50;;;-1.97;48.52
77482;BME280;66582;43.004;-75.010;2023-04-03T04:15:44;100611.60;;;-0.62;46.23
77482;BME280;66582;43.004;-75.010;2023-04-03T04:18:09;100608.66;;;0.23;43.31
77482;BME280;66582;43.004;-75.010;2023-04-03T04:20:35;100610.39;;;0.43;42.60
77482;BME280;66582;43.004;-75.010;2023-04-03T04:23:00;100606.23;;;0.63;42.37
77482;BME280;66582;43.004;-75.010;2023-04-03T04:25:25;100607.16;;;0.99;41.90
77482;BME280;66582;43.004;-75.010;2023-04-03T04:27:51;100615.69;;;-1.08;45.75
77482;BME280;66582;43.004;-75.010;2023-04-03T04:30:16;100613.10;;;-1.21;46.60
77482;BME280;66582;43.004;-75.010;2023-04-03T04:32:41;100604.65;;;-0.12;44.39
77482;BME280;66582;43.004;-75.010;2023-04-03T04:35:07;100616.54;;;-2.56;48.94
77482;BME280;66582;43.004;-75.010;2023-04-03T04:37:32;100625.95;;;-3.18;52.26
77482;BME280;66582;43.004;-75.010;2023-04-03T04:39:57;100622.22;;;-2.54;50.55
77482;BME280;66582;43.004;-75.010;2023-04-03T04:42:23;100628.22;;;-2.48;50.75
77482;BME280;66582;43.004;-75.010;2023-04-03T04:44:49;100623.89;;;-3.08;52.20
77482;BME280;66582;43.004;-75.010;2023-04-03T04:47:14;100615.05;;;-1.98;50.54
77482;BME280;66582;43.004;-75.010;2023-04-03T04:49:39;100608.69;;;-1.36;49.84
77482;BME280;66582;43.004;-75.010;2023-04-03T04:52:08;100611.31;;;-2.76;51.58
77482;BME280;66582;43.004;-75.010;2023-04-03T04:54:30;100607.79;;;-3.15;52.19
77482;BME280;66582;43.004;-75.010;2023-04-03T04:56:55;100599.83;;;-2.15;50.59
77482;BME280;66582;43.004;-75.010;2023-04-03T04:59:20;100600.80;;;-2.05;50.75
77482;BME280;66582;43.004;-75.010;2023-04-03T05:01:46;100604.60;;;-2.87;51.65
77482;BME280;66582;43.004;-75.010;2023-04-03T05:04:11;100609.85;;;-2.84;52.68
77482;BME280;66582;43.004;-75.010;2023-04-03T05:06:38;100605.46;;;-1.47;49.62
77482;BME280;66582;43.004;-75.010;2023-04-03T05:09:01;100605.10;;;-1.83;49.12
77482;BME280;66582;43.004;-75.010;2023-04-03T05:11:27;100597.13;;;-1.95;48.87
77482;BME280;66582;43.004;-75.010;2023-04-03T05:13:52;100605.77;;;-3.05;52.72
77482;BME280;66582;43.004;-75.010;2023-04-03T05:16:18;100605.02;;;-2.28;51.09
77482;BME280;66582;43.004;-75.010;2023-04-03T05:18:43;100601.17;;;-2.50;50.90
77482;BME280;66582;43.004;-75.010;2023-04-03T05:21:08;100590.36;;;-1.54;48.98
77482;BME280;66582;43.004;-75.010;2023-04-03T05:23:34;100592.69;;;-3.01;51.53
77482;BME280;66582;43.004;-75.010;2023-04-03T05:25:59;100580.51;;;-1.94;49.46
77482;BME280;66582;43.004;-75.010;2023-04-03T05:28:25;100581.03;;;-1.48;49.16
77482;BME280;66582;43.004;-75.010;2023-04-03T05:30:53;100584.67;;;-2.17;50.32
77482;BME280;66582;43.004;-75.010;2023-04-03T05:33:14;100587.99;;;-1.94;50.28
77482;BME280;66582;43.004;-75.010;2023-04-03T05:35:40;100585.06;;;-0.92;47.79
77482;BME280;66582;43.004;-75.010;2023-04-03T05:38:05;100581.14;;;-1.71;49.73
77482;BME280;66582;43.004;-75.010;2023-04-03T05:40:30;100575.53;;;-1.30;48.02
77482;BME280;66582;43.004;-75.010;2023-04-03T05:42:56;100587.15;;;-3.08;51.50
77482;BME280;66582;43.004;-75.010;2023-04-03T05:45:21;100577.80;;;-1.50;49.78
77482;BME280;66582;43.004;-75.010;2023-04-03T05:47:46;100574.66;;;-0.38;47.06
77482;BME280;66582;43.004;-75.010;2023-04-03T05:50:12;100581.56;;;-2.29;48.30
77482;BME280;66582;43.004;-75.010;2023-04-03T05:52:39;100588.50;;;-4.18;54.55
77482;BME280;66582;43.004;-75.010;2023-04-03T05:55:02;100577.98;;;-2.35;52.15
77482;BME280;66582;43.004;-75.010;2023-04-03T05:57:27;100579.12;;;-2.13;51.65
77482;BME280;66582;43.004;-75.010;2023-04-03T05:59:53;100569.65;;;-1.01;49.28
77482;BME280;66582;43.004;-75.010;2023-04-03T06:02:21;100579.85;;;-2.82;51.22
77482;BME280;66582;43.004;-75.010;2023-04-03T06:04:44;100567.86;;;-1.43;48.82
77482;BME280;66582;43.004;-75.010;2023-04-03T06:07:12;100580.24;;;-3.40;52.12
77482;BME280;66582;43.004;-75.010;2023-04-03T06:09:34;100566.84;;;-1.36;48.39
77482;BME280;66582;43.004;-75.010;2023-04-03T06:12:00;100557.15;;;0.19;44.79
77482;BME280;66582;43.004;-75.010;2023-04-03T06:14:25;100551.49;;;-0.04;44.87
77482;BME280;66582;43.004;-75.010;2023-04-03T06:16:50;100561.56;;;-2.78;49.45
77482;BME280;66582;43.004;-75.010;2023-04-03T06:19:15;100548.16;;;-0.30;46.52
77482;BME280;66582;43.004;-75.010;2023-04-03T06:21:40;100545.38;;;-0.51;46.11
77482;BME280;66582;43.004;-75.010;2023-04-03T06:24:06;100545.50;;;-1.85;48.84
77482;BME280;66582;43.004;-75.010;2023-04-03T06:26:31;100547.88;;;-2.65;50.80
77482;BME280;66582;43.004;-75.010;2023-04-03T06:28:56;100539.48;;;-2.16;50.89
77482;BME280;66582;43.004;-75.010;2023-04-03T06:31:21;100534.13;;;-2.23;50.47
77482;BME280;66582;43.004;-75.010;2023-04-03T06:33:46;100527.78;;;-1.53;49.76
77482;BME280;66582;43.004;-75.010;2023-04-03T06:36:12;100532.87;;;-2.35;51.76
77482;BME280;66582;43.004;-75.010;2023-04-03T06:38:37;100525.16;;;-1.56;50.45
77482;BME280;66582;43.004;-75.010;2023-04-03T06:41:02;100536.62;;;-3.11;52.23
77482;BME280;66582;43.004;-75.010;2023-04-03T06:43:27;100539.16;;;-5.20;60.24
77482;BME280;66582;43.004;-75.010;2023-04-03T06:45:53;100524.00;;;-3.02;55.27
77482;BME280;66582;43.004;-75.010;2023-04-03T06:48:18;100513.16;;;-1.59;52.91
77482;BME280;66582;43.004;-75.010;2023-04-03T06:50:43;100500.86;;;-0.46;48.06
77482;BME280;66582;43.004;-75.010;2023-04-03T06:53:09;100490.71;;;-0.15;45.85
77482;BME280;66582;43.004;-75.010;2023-04-03T06:55:33;100503.84;;;-4.17;54.37
77482;BME280;66582;43.004;-75.010;2023-04-03T06:57:58;100485.22;;;-1.40;49.85
77482;BME280;66582;43.004;-75.010;2023-04-03T07:00:24;100480.30;;;-0.54;46.45
77482;BME280;66582;43.004;-75.010;2023-04-03T07:02:49;100478.03;;;-0.96;47.27
77482;BME280;66582;43.004;-75.010;2023-04-03T07:05:14;100473.19;;;0.27;44.99
77482;BME280;66582;43.004;-75.010;2023-04-03T07:07:40;100474.06;;;0.19;43.93
77482;BME280;66582;43.004;-75.010;2023-04-03T07:10:06;100476.79;;;-2.25;48.48
77482;BME280;66582;43.004;-75.010;2023-04-03T07:12:29;100469.69;;;-1.47;48.20
77482;BME280;66582;43.004;-75.010;2023-04-03T07:14:55;100464.23;;;-1.53;48.87
77482;BME280;66582;43.004;-75.010;2023-04-03T07:17:20;100457.59;;;-1.78;48.43
77482;BME280;66582;43.004;-75.010;2023-04-03T07:19:46;100457.01;;;-0.90;47.77
77482;BME280;66582;43.004;-75.010;2023-04-03T07:22:11;100453.51;;;-0.73;47.31
77482;BME280;66582;43.004;-75.010;2023-04-03T07:24:36;100445.18;;;0.17;45.29
77482;BME280;66582;43.004;-75.010;2023-04-03T07:27:02;100457.71;;;-3.80;53.03
77482;BME280;66582;43.004;-75.010;2023-04-03T07:29:27;100453.26;;;-3.87;53.48
77482;BME280;66582;43.004;-75.010;2023-04-03T07:31:51;100454.30;;;-3.87;56.53
77482;BME280;66582;43.004;-75.010;2023-04-03T07:34:16;100437.79;;;-1.18;49.33
77482;BME280;66582;43.004;-75.010;2023-04-03T07:36:42;100431.05;;;0.10;46.04
77482;BME280;66582;43.004;-75.010;2023-04-03T07:39:07;100422.83;;;-1.32;48.39
77482;BME280;66582;43.004;-75.010;2023-04-03T07:41:32;100417.25;;;-1.58;48.96
77482;BME280;66582;43.004;-75.010;2023-04-03T07:43:58;100429.59;;;-4.58;57.17
77482;BME280;66582;43.004;-75.010;2023-04-03T07:46:23;100415.86;;;-2.12;50.89
77482;BME280;66582;43.004;-75.010;2023-04-03T07:48:48;100412.65;;;-1.71;49.78
77482;BME280;66582;43.004;-75.010;2023-04-03T07:51:13;100401.84;;;0.39;45.40
77482;BME280;66582;43.004;-75.010;2023-04-03T07:53:38;100391.43;;;-0.37;46.46
77482;BME280;66582;43.004;-75.010;2023-04-03T07:56:03;100389.32;;;-1.35;48.83
77482;BME280;66582;43.004;-75.010;2023-04-03T07:58:30;100383.31;;;-1.23;47.90
77482;BME280;66582;43.004;-75.010;2023-04-03T08:00:54;100375.16;;;-2.58;51.03
77482;BME280;66582;43.004;-75.010;2023-04-03T08:03:19;100364.49;;;-0.35;47.05
77482;BME280;66582;43.004;-75.010;2023-04-03T08:05:46;100374.78;;;-3.35;52.75
77482;BME280;66582;43.004;-75.010;2023-04-03T08:08:11;100360.83;;;-1.74;49.80
77482;BME280;66582;43.004;-75.010;2023-04-03T08:10:35;100363.72;;;-3.26;54.15
77482;BME280;66582;43.004;-75.010;2023-04-03T08:13:01;100361.06;;;-0.65;48.22
77482;BME280;66582;43.004;-75.010;2023-04-03T08:15:25;100364.49;;;-0.18;46.74
77482;BME280;66582;43.004;-75.010;2023-04-03T08:17:51;100371.67;;;0.13;46.28
77482;BME280;66582;43.004;-75.010;2023-04-03T08:20:17;100376.44;;;-1.36;48.44
77482;BME280;66582;43.004;-75.010;2023-04-03T08:22:41;100390.39;;;-3.90;54.33
77482;BME280;66582;43.004;-75.010;2023-04-03T08:25:07;100400.17;;;-5.51;62.25
77482;BME280;66582;43.004;-75.010;2023-04-03T08:27:33;100397.57;;;-3.83;59.51
77482;BME280;66582;43.004;-75.010;2023-04-03T08:29:57;100381.45;;;-1.23;52.05
77482;BME280;66582;43.004;-75.010;2023-04-03T08:32:23;100387.65;;;-1.89;50.23
77482;BME280;66582;43.004;-75.010;2023-04-03T08:34:47;100391.09;;;-1.38;49.64
77482;BME280;66582;43.004;-75.010;2023-04-03T08:37:13;100394.36;;;0.45;46.70
77482;BME280;66582;43.004;-75.010;2023-04-03T08:39:38;100401.16;;;0.16;45.81
77482;BME280;66582;43.004;-75.010;2023-04-03T08:42:10;100406.93;;;-1.62;49.70
77482;BME280;66582;43.004;-75.010;2023-04-03T08:44:37;100415.36;;;-3.67;53.11
77482;BME280;66582;43.004;-75.010;2023-04-03T08:47:07;100404.30;;;-1.91;52.33
77482;BME280;66582;43.004;-75.010;2023-04-03T08:49:24;100416.24;;;-3.45;53.72
77482;BME280;66582;43.004;-75.010;2023-04-03T08:51:48;100418.12;;;-2.82;53.23
77482;BME280;66582;43.004;-75.010;2023-04-03T08:54:20;100410.24;;;-0.43;47.99
77482;BME280;66582;43.004;-75.010;2023-04-03T08:56:35;100405.67;;;-0.11;45.82
77482;BME280;66582;43.004;-75.010;2023-04-03T08:59:03;100393.99;;;0.90;44.73
77482;BME280;66582;43.004;-75.010;2023-04-03T09:01:29;100408.83;;;-0.87;46.11
77482;BME280;66582;43.004;-75.010;2023-04-03T09:03:50;100411.10;;;-0.65;47.18
77482;BME280;66582;43.004;-75.010;2023-04-03T09:06:20;100418.68;;;0.08;46.17
77482;BME280;66582;43.004;-75.010;2023-04-03T09:08:45;100415.24;;;1.30;44.53
77482;BME280;66582;43.004;-75.010;2023-04-03T09:11:12;100423.03;;;-0.43;45.64
77482;BME280;66582;43.004;-75.010;2023-04-03T09:13:34;100416.97;;;-0.70;45.85
77482;BME280;66582;43.004;-75.010;2023-04-03T09:15:57;100428.96;;;-3.53;52.65
77482;BME280;66582;43.004;-75.010;2023-04-03T09:18:25;100423.63;;;-1.98;50.86
77482;BME280;66582;43.004;-75.010;2023-04-03T09:20:56;100423.18;;;0.05;46.32
77482;BME280;66582;43.004;-75.010;2023-04-03T09:23:19;100436.74;;;-1.41;49.84
77482;BME280;66582;43.004;-75.010;2023-04-03T09:25:39;100436.68;;;-0.41;48.35
77482;BME280;66582;43.004;-75.010;2023-04-03T09:28:04;100435.20;;;-0.07;47.78
77482;BME280;66582;43.004;-75.010;2023-04-03T09:30:28;100444.59;;;-1.69;49.54
77482;BME280;66582;43.004;-75.010;2023-04-03T09:32:56;100453.72;;;-2.49;53.22
77482;BME280;66582;43.004;-75.010;2023-04-03T09:35:23;100456.03;;;0.13;48.05
77482;BME280;66582;43.004;-75.010;2023-04-03T09:37:46;100457.60;;;0.34;46.43
77482;BME280;66582;43.004;-75.010;2023-04-03T09:40:29;100468.73;;;-1.23;49.20
77482;BME280;66582;43.004;-75.010;2023-04-03T09:42:40;100467.20;;;-0.66;48.24
77482;BME280;66582;43.004;-75.010;2023-04-03T09:45:02;100464.63;;;-0.90;47.54
77482;BME280;66582;43.004;-75.010;2023-04-03T09:47:27;100474.83;;;-2.41;52.64
77482;BME280;66582;43.004;-75.010;2023-04-03T09:49:51;100472.46;;;-1.84;50.89
77482;BME280;66582;43.004;-75.010;2023-04-03T09:52:22;100475.25;;;-3.03;53.89
77482;BME280;66582;43.004;-75.010;2023-04-03T09:54:41;100465.01;;;-2.29;52.49
77482;BME280;66582;43.004;-75.010;2023-04-03T09:57:10;100458.01;;;-1.65;51.52
77482;BME280;66582;43.004;-75.010;2023-04-03T09:59:32;100456.45;;;-0.24;46.82
77482;BME280;66582;43.004;-75.010;2023-04-03T10:01:59;100443.78;;;1.07;44.30
77482;BME280;66582;43.004;-75.010;2023-04-03T10:04:22;100447.84;;;0.26;45.51
77482;BME280;66582;43.004;-75.010;2023-04-03T10:06:50;100471.38;;;-1.53;49.04
77482;BME280;66582;43.004;-75.010;2023-04-03T10:09:20;100482.80;;;-2.18;49.49
77482;BME280;66582;43.004;-75.010;2023-04-03T10:11:38;100481.27;;;-0.02;45.64
77482;BME280;66582;43.004;-75.010;2023-04-03T10:14:04;100487.24;;;-0.11;44.67
77482;BME280;66582;43.004;-75.010;2023-04-03T10:16:35;100487.53;;;-1.18;46.75
77482;BME280;66582;43.004;-75.010;2023-04-03T10:19:04;100476.38;;;1.12;42.60
77482;BME280;66582;43.004;-75.010;2023-04-03T10:21:29;100481.89;;;1.51;42.35
77482;BME280;66582;43.004;-75.010;2023-04-03T10:23:46;100482.16;;;2.00;41.32
77482;BME280;66582;43.004;-75.010;2023-04-03T10:26:15;100493.90;;;0.67;43.83
77482;BME280;66582;43.004;-75.010;2023-04-03T10:28:42;100494.40;;;1.51;42.61
77482;BME280;66582;43.004;-75.010;2023-04-03T10:31:06;100494.89;;;1.00;42.47
77482;BME280;66582;43.004;-75.010;2023-04-03T10:33:35;100493.65;;;1.07;43.35
77482;BME280;66582;43.004;-75.010;2023-04-03T10:36:01;100493.38;;;1.87;42.09
77482;BME280;66582;43.004;-75.010;2023-04-03T10:38:23;100484.76;;;2.51;41.37
77482;BME280;66582;43.004;-75.010;2023-04-03T10:40:47;100474.56;;;2.63;40.52
77482;BME280;66582;43.004;-75.010;2023-04-03T10:43:12;100473.50;;;2.26;39.97
77482;BME280;66582;43.004;-75.010;2023-04-03T10:45:46;100461.21;;;2.35;39.59
77482;BME280;66582;43.004;-75.010;2023-04-03T10:48:05;100464.40;;;1.38;39.64
77482;BME280;66582;43.004;-75.010;2023-04-03T10:50:30;100468.91;;;0.20;40.63
77482;BME280;66582;43.004;-75.010;2023-04-03T10:52:54;100472.37;;;-1.44;43.42
77482;BME280;66582;43.004;-75.010;2023-04-03T10:55:24;100480.60;;;-1.27;45.44
77482;BME280;66582;43.004;-75.010;2023-04-03T10:57:40;100471.01;;;0.39;43.37
77482;BME280;66582;43.004;-75.010;2023-04-03T11:00:13;100483.31;;;1.29;40.81
77482;BME280;66582;43.004;-75.010;2023-04-03T11:02:32;100486.14;;;2.51;38.76
77482;BME280;66582;43.004;-75.010;2023-04-03T11:04:59;100493.01;;;3.19;37.49
77482;BME280;66582;43.004;-75.010;2023-04-03T11:07:23;100503.75;;;1.64;39.55
77482;BME280;66582;43.004;-75.010;2023-04-03T11:09:48;100507.78;;;1.27;37.97
77482;BME280;66582;43.004;-75.010;2023-04-03T11:12:14;100510.43;;;0.80;39.73
77482;BME280;66582;43.004;-75.010;2023-04-03T11:14:38;100498.63;;;1.74;39.12
77482;BME280;66582;43.004;-75.010;2023-04-03T11:17:15;100499.97;;;1.55;37.85
77482;BME280;66582;43.004;-75.010;2023-04-03T11:19:34;100492.64;;;2.73;36.95
77482;BME280;66582;43.004;-75.010;2023-04-03T11:21:56;100485.22;;;3.44;35.99
77482;BME280;66582;43.004;-75.010;2023-04-03T11:24:21;100491.97;;;3.02;35.76
77482;BME280;66582;43.004;-75.010;2023-04-03T11:26:45;100488.03;;;2.36;37.24
77482;BME280;66582;43.004;-75.010;2023-04-03T11:29:12;100474.86;;;2.94;36.51
77482;BME280;66582;43.004;-75.010;2023-04-03T11:31:42;100468.83;;;2.48;35.96
77482;BME280;66582;43.004;-75.010;2023-04-03T11:34:06;100464.17;;;1.46;37.77
77482;BME280;66582;43.004;-75.010;2023-04-03T11:36:26;100459.62;;;3.43;35.57
77482;BME280;66582;43.004;-75.010;2023-04-03T11:38:51;100467.87;;;2.37;36.49
77482;BME280;66582;43.004;-75.010;2023-04-03T11:41:18;100491.55;;;-0.70;40.03
77482;BME280;66582;43.004;-75.010;2023-04-03T11:43:46;100489.87;;;0.63;40.63
77482;BME280;66582;43.004;-75.010;2023-04-03T11:46:07;100478.66;;;1.09;39.07
77482;BME280;66582;43.004;-75.010;2023-04-03T11:50:55;100466.26;;;1.45;39.37
77482;BME280;66582;43.004;-75.010;2023-04-03T11:53:30;100455.57;;;2.74;37.01
77482;BME280;66582;43.004;-75.010;2023-04-03T11:55:56;100446.64;;;2.80;36.84
77482;BME280;66582;43.004;-75.010;2023-04-03T11:58:14;100458.20;;;1.54;37.50
77482;BME280;66582;43.004;-75.010;2023-04-03T12:00:47;100447.71;;;2.10;38.71
77482;BME280;66582;43.004;-75.010;2023-04-03T12:03:01;100449.27;;;2.55;38.23
77482;BME280;66582;43.004;-75.010;2023-04-03T12:05:27;100440.53;;;2.87;36.48
77482;BME280;66582;43.004;-75.010;2023-04-03T12:10:17;100448.41;;;3.73;35.11
77482;BME280;66582;43.004;-75.010;2023-04-03T12:12:41;100445.27;;;3.34;34.96
77482;BME280;66582;43.004;-75.010;2023-04-03T12:15:22;100435.00;;;2.93;36.26
77482;BME280;66582;43.004;-75.010;2023-04-03T12:17:32;100435.40;;;2.94;36.01
77482;BME280;66582;43.004;-75.010;2023-04-03T12:19:57;100439.45;;;2.44;37.28
77482;BME280;66582;43.004;-75.010;2023-04-03T12:22:22;100438.54;;;3.01;36.43
77482;BME280;66582;43.004;-75.010;2023-04-03T12:24:49;100444.41;;;1.39;39.26
77482;BME280;66582;43.004;-75.010;2023-04-03T12:27:25;100427.86;;;3.95;36.00
77482;BME280;66582;43.004;-75.010;2023-04-03T12:29:46;100430.00;;;3.81;36.09
77482;BME280;66582;43.004;-75.010;2023-04-03T12:32:12;100412.53;;;5.53;33.47